Date,TemperatureHighF,TemperatureAvgF,TemperatureLowF,DewpointHighF,DewpointAvgF,DewpointLowF,HumidityHigh,HumidityAvg,HumidityLow,PressureMaxIn,PressureMinIn,WindSpeedMaxMPH,WindSpeedAvgMPH,GustSpeedMaxMPH,PrecipitationSumIn
2013-3-1,54,40,27,32,27,23,88,64,38,29.92,29.81,13,1,13,0.00
2013-3-2,45,40,33,35,32,24,90,74,55,29.91,29.81,15,0,15,0.01
2013-3-3,48,35,24,24,20,15,85,56,28,30.00,29.86,12,1,12,0.00
2013-3-4,54,38,22,29,19,14,80,51,22,30.14,29.99,10,0,10,0.00
2013-3-5,61,48,38,54,40,28,99,75,49,30.02,29.58,30,2,30,0.41
2013-3-6,50,40,32,29,25,20,76,56,38,30.08,29.68,21,5,21,0.00
2013-3-7,58,41,26,32,28,23,91,63,33,30.22,30.08,7,0,8,0.00
2013-3-8,64,44,28,30,23,17,82,49,18,30.29,30.14,7,0,7,0.00
2013-3-9,64,47,33,34,27,22,73,47,25,30.31,30.17,7,0,7,0.00
2013-3-10,67,53,40,39,35,30,83,53,30,30.24,30.08,12,1,12,0.00
2013-3-11,67,54,44,56,47,38,100,78,57,30.10,29.76,18,3,18,0.60
2013-3-12,68,58,47,57,46,22,100,72,24,29.97,29.67,10,2,11,0.16
2013-3-13,58,46,36,33,26,19,81,48,23,30.13,29.97,21,4,21,0.00
2013-3-14,53,40,26,24,20,14,77,47,25,30.28,30.12,11,1,11,0.00
2013-3-15,72,51,30,42,31,17,77,48,29,30.17,29.88,18,2,18,0.00
2013-3-16,77,65,55,48,42,37,63,44,27,29.88,29.72,21,4,21,0.00
2013-3-17,74,64,54,52,47,39,72,53,38,29.95,29.81,17,2,17,0.00
2013-3-18,56,44,42,45,41,40,100,91,67,30.03,29.81,16,2,16,0.42
2013-3-19,69,54,43,50,34,19,100,60,18,29.99,29.82,16,3,16,0.01
2013-3-20,58,48,38,30,20,13,65,35,19,30.07,29.78,18,1,18,0.00
2013-3-21,54,42,32,30,12,2,60,32,17,29.92,29.77,19,4,19,0.00
2013-3-22,49,38,27,30,20,13,79,50,28,30.06,29.92,9,1,9,0.00
2013-3-23,50,45,40,47,40,28,99,86,62,29.99,29.82,6,0,6,0.23
2013-3-24,46,44,42,45,42,40,100,94,80,29.84,29.51,14,3,14,1.08
2013-3-25,45,41,34,43,26,20,99,56,38,29.93,29.53,24,7,26,0.00
2013-3-26,51,39,29,26,23,19,78,54,32,30.17,29.91,13,2,13,0.00
2013-3-27,56,40,26,28,23,18,87,55,25,30.26,30.12,11,1,11,0.00
2013-3-28,62,44,28,27,23,17,82,49,18,30.29,30.12,12,1,12,0.00
2013-3-29,60,47,30,40,28,20,78,50,24,30.31,30.15,9,1,9,0.00
2013-3-30,69,56,44,49,41,37,87,61,32,30.16,29.97,12,1,12,0.02
2013-3-31,70,58,51,57,54,48,100,86,53,29.99,29.78,18,2,18,0.61